createdAt,value
2022-10-08T00:00:15.136Z,100021.69
2022-10-08T00:02:42.155Z,100017.28
2022-10-08T00:05:09.126Z,100012.75
2022-10-08T00:07:35.688Z,100008.22
2022-10-08T00:10:06.181Z,100001.81
2022-10-08T00:12:32.937Z,100005.53
2022-10-08T00:14:59.697Z,100002.91
2022-10-08T00:17:26.833Z,100006.91
2022-10-08T00:19:54.207Z,100002.28
2022-10-08T00:22:20.736Z,99998.56
2022-10-08T00:24:47.220Z,99998.25
2022-10-08T00:27:13.700Z,99993.53
2022-10-08T00:29:40.972Z,99991.13
2022-10-08T00:32:07.512Z,99997.03
2022-10-08T00:34:34.373Z,99991.50
2022-10-08T00:37:00.975Z,99981.34
2022-10-08T00:39:27.535Z,99981.84
2022-10-08T00:41:55.294Z,99986.78
2022-10-08T00:44:47.248Z,99979.06
2022-10-08T00:47:17.302Z,99985.31
2022-10-08T00:49:43.987Z,99984.13
2022-10-08T00:52:10.650Z,99982.94
2022-10-08T00:54:37.251Z,99977.06
2022-10-08T00:57:03.719Z,99969.63
2022-10-08T00:59:30.419Z,99974.19
2022-10-08T01:01:56.903Z,99963.56
2022-10-08T01:04:25.094Z,99956.81
2022-10-08T01:07:05.710Z,99958.19
2022-10-08T01:09:42.811Z,99958.50
2022-10-08T01:12:24.445Z,99949.25
2022-10-08T01:14:58.149Z,99952.44
2022-10-08T01:17:43.158Z,99961.19
2022-10-08T01:20:21.805Z,99954.44
2022-10-08T01:22:58.547Z,99952.63
2022-10-08T01:25:37.699Z,99949.41
2022-10-08T01:28:29.569Z,99948.06
2022-10-08T01:31:01.495Z,99947.06
2022-10-08T01:33:33.807Z,99942.03
2022-10-08T01:36:05.162Z,99941.03
2022-10-08T01:38:33.819Z,99931.09
2022-10-08T01:41:03.011Z,99937.69
2022-10-08T01:43:32.681Z,99938.69
2022-10-08T01:46:18.379Z,99937.00
2022-10-08T01:48:46.306Z,99925.56
2022-10-08T01:51:21.130Z,99930.41
2022-10-08T01:53:49.499Z,99928.91
2022-10-08T01:56:23.763Z,99937.53
2022-10-08T01:59:01.230Z,99929.25
2022-10-08T02:01:57.264Z,99917.13
2022-10-08T02:04:34.703Z,99928.59
2022-10-08T02:07:23.045Z,99913.91
2022-10-08T02:09:55.675Z,99915.75
2022-10-08T02:12:23.132Z,99913.22
2022-10-08T02:14:55.169Z,99918.13
2022-10-08T02:17:24.766Z,99902.25
2022-10-08T02:19:55.846Z,99901.25
2022-10-08T02:22:28.486Z,99907.69
2022-10-08T02:25:02.086Z,99901.94
2022-10-08T02:28:08.175Z,99902.25
2022-10-08T02:30:56.080Z,99898.06
2022-10-08T02:33:52.579Z,99893.16
2022-10-08T02:36:23.287Z,99897.38
2022-10-08T02:38:55.953Z,99903.97
2022-10-08T02:41:27.074Z,99911.56
2022-10-08T02:43:54.357Z,99905.47
2022-10-08T02:46:22.753Z,99907.00
2022-10-08T02:49:01.636Z,99900.94
2022-10-08T02:51:29.619Z,99906.16
2022-10-08T02:53:56.362Z,99909.53
2022-10-08T02:56:31.656Z,99904.66
2022-10-08T02:58:58.308Z,99905.50
2022-10-08T03:01:34.011Z,99905.78
2022-10-08T03:04:05.471Z,99899.38
2022-10-08T03:06:32.528Z,99912.38
2022-10-08T03:09:00.534Z,99901.75
2022-10-08T03:11:27.505Z,99900.75
2022-10-08T03:13:58.352Z,99902.94
2022-10-08T03:16:30.938Z,99904.94
2022-10-08T03:18:59.203Z,99905.31
2022-10-08T03:21:28.192Z,99907.13
2022-10-08T03:23:54.684Z,99914.06
2022-10-08T03:26:21.146Z,99911.69
2022-10-08T03:28:47.668Z,99914.72
2022-10-08T03:31:14.352Z,99914.19
2022-10-08T03:33:41.409Z,99912.69
2022-10-08T03:36:07.966Z,99911.00
2022-10-08T03:38:35.115Z,99918.09
2022-10-08T03:41:02.563Z,99919.06
2022-10-08T03:43:33.030Z,99917.03
2022-10-08T03:45:59.845Z,99912.63
2022-10-08T03:48:26.743Z,99913.31
2022-10-08T03:50:53.806Z,99907.72
2022-10-08T03:53:20.921Z,99911.94
2022-10-08T03:55:47.429Z,99916.63
2022-10-08T03:58:14.432Z,99916.63
2022-10-08T04:00:41.322Z,99916.41
2022-10-08T04:03:08.495Z,99915.56
2022-10-08T04:05:35.040Z,99919.66
2022-10-08T04:08:01.926Z,99912.56
2022-10-08T04:10:28.551Z,99922.66
2022-10-08T04:12:55.408Z,99928.34
2022-10-08T04:15:21.943Z,99922.81
2022-10-08T04:17:48.510Z,99925.34
2022-10-08T04:20:15.103Z,99924.00
2022-10-08T04:22:41.598Z,99921.31
2022-10-08T04:25:08.179Z,99920.47
2022-10-08T04:27:34.603Z,99923.50
2022-10-08T04:30:01.119Z,99923.69
2022-10-08T04:32:27.728Z,99918.94
2022-10-08T04:34:54.325Z,99913.53
2022-10-08T04:37:22.502Z,99926.75
2022-10-08T04:39:48.980Z,99917.97
2022-10-08T04:42:15.484Z,99916.44
2022-10-08T04:44:41.972Z,99917.97
2022-10-08T04:47:08.490Z,99920.13
2022-10-08T04:49:35.112Z,99912.69
2022-10-08T04:52:01.717Z,99914.03
2022-10-08T04:54:28.187Z,99916.75
2022-10-08T04:56:54.638Z,99909.31
2022-10-08T04:59:21.132Z,99919.94
2022-10-08T05:01:47.711Z,99918.94
2022-10-08T05:04:14.787Z,99918.19
2022-10-08T05:06:41.274Z,99917.84
2022-10-08T05:09:08.720Z,99915.50
2022-10-08T05:11:35.610Z,99921.81
2022-10-08T05:14:02.680Z,99918.09
2022-10-08T05:16:29.218Z,99919.66
2022-10-08T05:18:55.859Z,99922.53
2022-10-08T05:21:25.537Z,99920.53
2022-10-08T05:23:56.766Z,99918.69
2022-10-08T05:26:56.283Z,99934.41
2022-10-08T05:29:16.177Z,99933.56
2022-10-08T05:31:42.687Z,99936.56
2022-10-08T05:34:09.291Z,99931.31
2022-10-08T05:36:35.727Z,99935.53
2022-10-08T05:39:04.685Z,99936.03
2022-10-08T05:41:33.900Z,99934.81
2022-10-08T05:44:03.322Z,99933.91
2022-10-08T05:46:33.184Z,99935.94
2022-10-08T05:49:01.846Z,99939.47
2022-10-08T05:51:29.079Z,99951.16
2022-10-08T05:53:59.134Z,99946.59
2022-10-08T05:56:26.916Z,99949.97
2022-10-08T05:58:53.919Z,99965.16
2022-10-08T06:01:24.143Z,99956.69
2022-10-08T06:03:56.342Z,99963.63
2022-10-08T06:06:23.735Z,99968.47
2022-10-08T06:08:54.839Z,99977.09
2022-10-08T06:11:21.865Z,99972.00
2022-10-08T06:13:52.035Z,99974.34
2022-10-08T06:16:18.591Z,99981.59
2022-10-08T06:18:45.095Z,99996.25
2022-10-08T06:21:14.207Z,99999.63
2022-10-08T06:23:46.200Z,100005.22
2022-10-08T06:26:12.791Z,100004.53
2022-10-08T06:28:40.145Z,100017.63
2022-10-08T06:31:07.889Z,100020.78
2022-10-08T06:33:35.323Z,100016.06
2022-10-08T06:36:14.204Z,100020.75
2022-10-08T06:38:40.722Z,100021.28
2022-10-08T06:41:07.202Z,100018.59
2022-10-08T06:43:33.880Z,100017.03
2022-10-08T06:46:04.119Z,100020.38
2022-10-08T06:48:30.769Z,100026.28
2022-10-08T06:51:01.459Z,100023.06
2022-10-08T06:53:28.523Z,100018.97
2022-10-08T06:56:07.039Z,100025.25
2022-10-08T06:58:40.675Z,100025.25
2022-10-08T07:01:12.967Z,100029.94
2022-10-08T07:03:39.811Z,100033.31
2022-10-08T07:06:08.862Z,100037.22
2022-10-08T07:08:38.231Z,100039.34
2022-10-08T07:11:12.124Z,100043.91
2022-10-08T07:13:39.321Z,100054.28
2022-10-08T07:16:08.755Z,100060.34
2022-10-08T07:18:36.403Z,100069.38
2022-10-08T07:21:03.670Z,100066.78
2022-10-08T07:23:30.716Z,100066.59
2022-10-08T07:26:02.904Z,100055.38
2022-10-08T07:28:32.346Z,100061.09
2022-10-08T07:31:04.651Z,100056.66
2022-10-08T07:33:31.789Z,100065.53
2022-10-08T07:36:06.873Z,100068.44
2022-10-08T07:38:33.356Z,100062.34
2022-10-08T07:40:59.832Z,100071.78
2022-10-08T07:43:26.320Z,100074.25
2022-10-08T07:45:52.955Z,100072.75
2022-10-08T07:48:20.014Z,100072.94
2022-10-08T07:50:46.870Z,100073.59
2022-10-08T07:53:13.494Z,100086.16
2022-10-08T07:55:39.979Z,100084.81
2022-10-08T07:58:06.790Z,100082.63
2022-10-08T08:00:33.542Z,100090.94
2022-10-08T08:03:00.269Z,100092.84
2022-10-08T08:05:27.042Z,100097.97
2022-10-08T08:07:53.641Z,100104.44
2022-10-08T08:10:20.163Z,100095.19
2022-10-08T08:12:46.918Z,100100.69
2022-10-08T08:15:13.485Z,100094.34
2022-10-08T08:17:39.992Z,100096.25
2022-10-08T08:20:07.047Z,100097.13
2022-10-08T08:22:33.729Z,100092.63
2022-10-08T08:25:00.243Z,100082.66
2022-10-08T08:27:26.900Z,100091.47
2022-10-08T08:29:53.389Z,100093.47
2022-10-08T08:32:23.777Z,100084.59
2022-10-08T08:34:54.452Z,100093.31
2022-10-08T08:37:20.939Z,100085.22
2022-10-08T08:39:47.399Z,100096.41
2022-10-08T08:42:24.570Z,100092.25
2022-10-08T08:45:46.981Z,100100.09
2022-10-08T08:48:17.809Z,100110.31
2022-10-08T08:50:48.744Z,100112.19
2022-10-08T08:53:15.713Z,100112.28
2022-10-08T08:55:45.094Z,100104.53
2022-10-08T08:58:14.582Z,100109.78
2022-10-08T09:00:43.376Z,100117.63
2022-10-08T09:03:22.962Z,100109.47
2022-10-08T09:05:53.227Z,100117.34
2022-10-08T09:08:32.256Z,100115.81
2022-10-08T09:11:04.174Z,100107.22
2022-10-08T09:13:36.669Z,100113.41
2022-10-08T09:16:03.677Z,100107.75
2022-10-08T09:18:30.253Z,100100.94
2022-10-08T09:20:56.770Z,100104.13
2022-10-08T09:23:25.528Z,100110.34
2022-10-08T09:26:20.634Z,100116.28
2022-10-08T09:28:52.597Z,100126.06
2022-10-08T09:31:31.454Z,100119.03
2022-10-08T09:34:02.031Z,100131.41
2022-10-08T09:37:02.101Z,100124.44
2022-10-08T09:39:31.259Z,100123.13
2022-10-08T09:42:06.724Z,100123.84
2022-10-08T09:44:40.963Z,100126.78
2022-10-08T09:47:17.998Z,100126.75
2022-10-08T09:49:49.746Z,100122.69
2022-10-08T09:52:26.956Z,100130.75
2022-10-08T09:54:57.168Z,100133.16
2022-10-08T09:57:23.772Z,100133.50
2022-10-08T09:59:56.204Z,100135.06
2022-10-08T10:02:31.992Z,100141.47
2022-10-08T10:05:00.156Z,100153.47
2022-10-08T10:07:47.112Z,100147.13
2022-10-08T10:10:28.778Z,100147.69
2022-10-08T10:13:00.545Z,100146.94
2022-10-08T10:15:41.712Z,100144.25
2022-10-08T10:18:14.294Z,100153.47
2022-10-08T10:20:47.417Z,100148.50
2022-10-08T10:23:25.646Z,100152.19
2022-10-08T10:26:19.177Z,100150.34
2022-10-08T10:28:55.897Z,100150.72
2022-10-08T10:31:27.296Z,100154.34
2022-10-08T10:34:10.932Z,100160.00
2022-10-08T10:36:46.176Z,100155.84
2022-10-08T10:39:36.436Z,100154.09
2022-10-08T10:42:24.401Z,100160.56
2022-10-08T10:44:53.972Z,100151.28
2022-10-08T10:47:22.868Z,100157.69
2022-10-08T10:49:51.159Z,100149.47
2022-10-08T10:52:42.436Z,100146.66
2022-10-08T10:55:31.278Z,100149.31
2022-10-08T10:58:19.813Z,100150.91
2022-10-08T11:00:55.579Z,100153.97
2022-10-08T11:03:36.113Z,100151.72
2022-10-08T11:06:21.354Z,100157.78
2022-10-08T11:08:58.030Z,100148.97
2022-10-08T11:11:24.415Z,100147.91
2022-10-08T11:13:56.984Z,100156.75
2022-10-08T11:16:47.282Z,100145.13
2022-10-08T11:19:21.357Z,100148.47
2022-10-08T11:22:02.525Z,100135.91
2022-10-08T11:24:32.015Z,100137.81
2022-10-08T11:27:20.587Z,100138.47
2022-10-08T11:30:02.402Z,100147.72
2022-10-08T11:32:29.931Z,100141.34
2022-10-08T11:35:20.304Z,100146.81
2022-10-08T11:37:58.529Z,100147.72
2022-10-08T11:40:33.986Z,100145.63
2022-10-08T11:43:17.897Z,100150.03
2022-10-08T11:45:46.240Z,100143.97
2022-10-08T11:48:35.155Z,100152.72
2022-10-08T11:51:20.071Z,100142.50
2022-10-08T11:54:05.006Z,100146.75
2022-10-08T11:56:32.904Z,100142.19
2022-10-08T11:59:07.550Z,100147.63
2022-10-08T12:01:34.131Z,100144.81
2022-10-08T12:04:16.229Z,100135.72
2022-10-08T12:06:43.688Z,100147.75
2022-10-08T12:09:22.028Z,100141.38
2022-10-08T12:11:53.171Z,100143.19
2022-10-08T12:14:19.695Z,100130.81
2022-10-08T12:16:49.019Z,100136.16
2022-10-08T12:19:33.857Z,100134.81
2022-10-08T12:22:16.452Z,100138.06
2022-10-08T12:24:50.307Z,100140.09
2022-10-08T12:27:17.121Z,100132.72
2022-10-08T12:30:00.515Z,100120.66
2022-10-08T12:32:29.343Z,100121.63
2022-10-08T12:34:56.686Z,100112.59
2022-10-08T12:37:42.800Z,100116.41
2022-10-08T12:40:20.036Z,100122.19
2022-10-08T12:42:48.599Z,100129.31
2022-10-08T12:45:24.598Z,100128.28
2022-10-08T12:47:59.511Z,100130.47
2022-10-08T12:50:44.931Z,100135.50
2022-10-08T12:53:14.295Z,100123.22
2022-10-08T12:55:53.188Z,100122.22
2022-10-08T12:58:22.807Z,100118.56
2022-10-08T13:00:55.943Z,100106.47
2022-10-08T13:03:22.782Z,100115.94
2022-10-08T13:05:49.656Z,100109.28
2022-10-08T13:08:38.741Z,100120.06
2022-10-08T13:11:12.772Z,100119.16
2022-10-08T13:13:39.154Z,100126.34
2022-10-08T13:16:08.260Z,100125.59
2022-10-08T13:21:26.201Z,100131.03
2022-10-08T13:23:52.891Z,100130.38
2022-10-08T13:26:45.804Z,100144.63
2022-10-08T13:29:22.694Z,100133.00
2022-10-08T13:32:11.079Z,100147.31
2022-10-08T13:34:38.352Z,100145.63
2022-10-08T13:37:14.696Z,100150.25
2022-10-08T13:39:52.154Z,100141.41
2022-10-08T13:42:21.115Z,100150.66
2022-10-08T13:44:47.631Z,100150.84
2022-10-08T13:47:16.416Z,100145.19
2022-10-08T13:49:43.296Z,100156.03
2022-10-08T13:52:21.498Z,100153.16
2022-10-08T13:54:49.655Z,100158.66
2022-10-08T13:57:16.167Z,100154.00
2022-10-08T13:59:42.981Z,100164.84
2022-10-08T14:02:13.521Z,100164.47
2022-10-08T14:04:40.245Z,100171.63
2022-10-08T14:07:24.688Z,100168.13
2022-10-08T14:09:51.865Z,100172.47
2022-10-08T14:12:22.992Z,100191.66
2022-10-08T14:14:49.436Z,100190.19
2022-10-08T14:17:15.879Z,100200.75
2022-10-08T14:19:42.662Z,100201.56
2022-10-08T14:22:10.251Z,100192.94
2022-10-08T14:24:36.729Z,100201.09
2022-10-08T14:27:08.135Z,100196.50
2022-10-08T14:29:35.306Z,100208.09
2022-10-08T14:32:03.180Z,100211.91
2022-10-08T14:34:29.756Z,100204.22
2022-10-08T14:36:56.242Z,100213.13
2022-10-08T14:39:22.693Z,100210.97
2022-10-08T14:41:49.455Z,100207.69
2022-10-08T14:44:16.812Z,100211.28
2022-10-08T14:46:44.083Z,100209.41
2022-10-08T14:49:10.526Z,100213.38
2022-10-08T14:51:39.888Z,100208.03
2022-10-08T14:54:06.841Z,100210.28
2022-10-08T14:56:33.867Z,100221.91
2022-10-08T14:59:00.638Z,100214.59
2022-10-08T15:01:28.380Z,100226.22
2022-10-08T15:04:14.789Z,100226.34
2022-10-08T15:07:01.598Z,100236.72
2022-10-08T15:09:28.412Z,100238.00
2022-10-08T15:11:54.889Z,100239.03
2022-10-08T15:14:21.407Z,100240.97
2022-10-08T15:16:47.906Z,100244.44
2022-10-08T15:19:14.384Z,100248.66
2022-10-08T15:21:42.048Z,100241.56
2022-10-08T15:24:08.590Z,100257.28
2022-10-08T15:26:35.125Z,100252.53
2022-10-08T15:29:01.742Z,100267.75
2022-10-08T15:31:29.423Z,100277.16
2022-10-08T15:33:57.476Z,100272.41
2022-10-08T15:36:32.637Z,100274.47
2022-10-08T15:39:04.515Z,100283.84
2022-10-08T15:41:34.636Z,100270.50
2022-10-08T15:44:18.763Z,100274.97
2022-10-08T15:46:46.210Z,100270.56
2022-10-08T15:49:12.875Z,100287.88
2022-10-08T15:51:39.334Z,100280.25
2022-10-08T15:54:05.801Z,100285.84
2022-10-08T15:56:32.529Z,100289.56
2022-10-08T15:59:00.004Z,100299.22
2022-10-08T16:01:27.670Z,100295.53
2022-10-08T16:03:55.759Z,100292.47
2022-10-08T16:06:27.878Z,100298.06
2022-10-08T16:08:56.636Z,100297.06
2022-10-08T16:11:24.313Z,100305.16
2022-10-08T16:13:56.407Z,100305.00
2022-10-08T16:16:23.037Z,100307.88
2022-10-08T16:18:54.659Z,100313.47
2022-10-08T16:21:21.735Z,100311.75
2022-10-08T16:23:48.561Z,100313.47
2022-10-08T16:26:22.448Z,100316.81
2022-10-08T16:28:51.551Z,100321.88
2022-10-08T16:31:19.403Z,100326.94
2022-10-08T16:33:46.095Z,100332.56
2022-10-08T16:36:14.528Z,100337.44
2022-10-08T16:38:41.620Z,100341.50
2022-10-08T16:41:12.449Z,100346.91
2022-10-08T16:43:39.569Z,100346.06
2022-10-08T16:46:13.458Z,100351.47
2022-10-08T16:48:40.822Z,100360.78
2022-10-08T16:51:08.051Z,100356.19
2022-10-08T16:53:34.737Z,100360.91
2022-10-08T16:56:02.590Z,100371.03
2022-10-08T16:58:29.404Z,100373.34
2022-10-08T17:00:56.140Z,100380.59
2022-10-08T17:03:22.744Z,100374.69
2022-10-08T17:05:49.230Z,100381.59
2022-10-08T17:08:16.109Z,100388.78
2022-10-08T17:10:42.848Z,100379.81
2022-10-08T17:13:09.333Z,100393.91
2022-10-08T17:15:35.936Z,100396.59
2022-10-08T17:18:02.758Z,100401.91
2022-10-08T17:20:29.314Z,100411.09
2022-10-08T17:22:56.215Z,100415.47
2022-10-08T17:25:22.987Z,100423.34
2022-10-08T17:27:49.498Z,100416.63
2022-10-08T17:30:16.048Z,100428.25
2022-10-08T17:32:42.615Z,100420.41
2022-10-08T17:35:09.430Z,100432.16
2022-10-08T17:37:36.736Z,100431.38
2022-10-08T17:40:03.357Z,100436.94
2022-10-08T17:42:29.954Z,100439.41
2022-10-08T17:44:56.444Z,100434.94
2022-10-08T17:47:26.998Z,100441.88
2022-10-08T17:49:55.613Z,100444.72
2022-10-08T17:52:22.071Z,100435.94
2022-10-08T17:54:48.504Z,100444.72
2022-10-08T17:57:15.009Z,100443.19
2022-10-08T17:59:41.560Z,100443.13
2022-10-08T18:02:08.542Z,100444.31
2022-10-08T18:04:35.114Z,100448.88
2022-10-08T18:07:03.582Z,100445.63
2022-10-08T18:09:30.279Z,100448.66
2022-10-08T18:11:56.747Z,100454.22
2022-10-08T18:14:23.425Z,100457.13
2022-10-08T18:16:50.095Z,100461.91
2022-10-08T18:19:17.744Z,100461.06
2022-10-08T18:21:44.374Z,100465.06
2022-10-08T18:24:11.159Z,100468.06
2022-10-08T18:26:37.855Z,100477.66
2022-10-08T18:29:09.168Z,100467.44
2022-10-08T18:31:37.391Z,100471.94
2022-10-08T18:34:09.513Z,100465.38
2022-10-08T18:36:37.482Z,100474.16
2022-10-08T18:39:09.851Z,100475.88
2022-10-08T18:41:38.913Z,100484.34
2022-10-08T18:44:06.517Z,100490.34
2022-10-08T18:46:34.535Z,100498.00
2022-10-08T18:49:01.532Z,100502.38
2022-10-08T18:51:29.435Z,100501.22
2022-10-08T18:53:57.062Z,100508.50
2022-10-08T18:56:28.735Z,100507.66
2022-10-08T18:59:01.648Z,100516.97
2022-10-08T19:01:34.681Z,100518.25
2022-10-08T19:04:03.256Z,100511.88
2022-10-08T19:06:32.577Z,100527.53
2022-10-08T19:09:00.319Z,100530.28
2022-10-08T19:11:33.562Z,100526.13
2022-10-08T19:14:00.847Z,100521.88
2022-10-08T19:16:27.403Z,100530.44
2022-10-08T19:18:58.042Z,100542.59
2022-10-08T19:21:26.622Z,100538.94
2022-10-08T19:23:53.774Z,100538.13
2022-10-08T19:26:21.525Z,100544.34
2022-10-08T19:28:50.800Z,100548.88
2022-10-08T19:31:27.101Z,100559.25
2022-10-08T19:33:56.212Z,100567.66
2022-10-08T19:36:23.896Z,100564.81
2022-10-08T19:38:52.637Z,100568.78
2022-10-08T19:41:19.241Z,100567.38
2022-10-08T19:43:46.101Z,100580.25
2022-10-08T19:46:13.035Z,100581.81
2022-10-08T19:48:39.707Z,100596.59
2022-10-08T19:51:11.435Z,100595.16
2022-10-08T19:53:39.036Z,100597.16
2022-10-08T19:56:10.828Z,100596.88
2022-10-08T19:58:39.022Z,100602.97
2022-10-08T20:01:11.562Z,100610.47
2022-10-08T20:03:39.109Z,100619.25
2022-10-08T20:06:11.255Z,100613.72
2022-10-08T20:08:38.692Z,100625.75
2022-10-08T20:11:09.030Z,100630.88
2022-10-08T20:13:36.153Z,100637.13
2022-10-08T20:16:04.610Z,100631.72
2022-10-08T20:18:32.135Z,100642.91
2022-10-08T20:21:12.328Z,100645.59
2022-10-08T20:23:40.047Z,100641.50
2022-10-08T20:26:21.046Z,100645.88
2022-10-08T20:28:50.634Z,100649.81
2022-10-08T20:31:20.417Z,100647.72
2022-10-08T20:33:48.595Z,100661.13
2022-10-08T20:36:17.174Z,100662.44
2022-10-08T20:38:44.589Z,100663.13
2022-10-08T20:41:11.354Z,100675.03
2022-10-08T20:43:39.592Z,100676.28
2022-10-08T20:46:12.332Z,100672.03
2022-10-08T20:48:43.588Z,100678.09
2022-10-08T20:51:13.481Z,100683.19
2022-10-08T20:53:40.768Z,100688.25
2022-10-08T20:56:09.585Z,100688.19
2022-10-08T20:58:36.256Z,100690.88
2022-10-08T21:01:07.671Z,100700.63
2022-10-08T21:03:36.248Z,100692.09
2022-10-08T21:06:07.494Z,100694.06
2022-10-08T21:08:38.170Z,100694.53
2022-10-08T21:11:06.270Z,100690.94
2022-10-08T21:13:34.095Z,100700.50
2022-10-08T21:16:06.336Z,100700.56
2022-10-08T21:18:33.812Z,100700.75
2022-10-08T21:21:08.289Z,100693.59
2022-10-08T21:23:35.911Z,100708.03
2022-10-08T21:26:22.478Z,100699.44
2022-10-08T21:28:50.950Z,100705.41
2022-10-08T21:31:20.063Z,100697.75
2022-10-08T21:33:48.586Z,100709.47
2022-10-08T21:36:17.654Z,100713.47
2022-10-08T21:38:44.478Z,100706.66
2022-10-08T21:41:13.373Z,100713.75
2022-10-08T21:43:41.640Z,100714.97
2022-10-08T21:46:10.356Z,100712.69
2022-10-08T21:48:37.524Z,100716.78
2022-10-08T21:51:05.407Z,100712.25
2022-10-08T21:53:33.864Z,100717.88
2022-10-08T21:56:04.587Z,100717.06
2022-10-08T21:58:34.770Z,100722.53
2022-10-08T22:01:01.206Z,100719.72
2022-10-08T22:03:27.961Z,100716.69
2022-10-08T22:05:58.715Z,100723.03
2022-10-08T22:08:26.792Z,100722.13
2022-10-08T22:10:53.720Z,100727.28
2022-10-08T22:13:20.983Z,100724.13
2022-10-08T22:15:55.294Z,100724.84
2022-10-08T22:18:23.090Z,100731.72
2022-10-08T22:20:50.054Z,100729.56
2022-10-08T22:23:16.662Z,100735.06
2022-10-08T22:25:43.255Z,100737.16
2022-10-08T22:28:09.757Z,100734.94
2022-10-08T22:30:37.300Z,100737.03
2022-10-08T22:33:04.021Z,100741.59
2022-10-08T22:35:34.950Z,100741.00
2022-10-08T22:38:01.592Z,100736.13
2022-10-08T22:40:28.059Z,100739.19
2022-10-08T22:42:54.540Z,100735.19
2022-10-08T22:45:21.183Z,100739.94
2022-10-08T22:47:48.246Z,100742.75
2022-10-08T22:50:17.640Z,100737.75
2022-10-08T22:52:49.243Z,100736.56
2022-10-08T22:55:17.245Z,100744.22
2022-10-08T22:57:43.977Z,100739.97
2022-10-08T23:00:11.538Z,100742.38
2022-10-08T23:02:38.651Z,100741.19
2022-10-08T23:05:05.672Z,100748.13
2022-10-08T23:07:32.350Z,100740.84
2022-10-08T23:09:58.905Z,100734.56
2022-10-08T23:12:25.393Z,100745.28
2022-10-08T23:14:52.026Z,100741.13
2022-10-08T23:17:18.908Z,100756.97
2022-10-08T23:19:45.846Z,100758.91
2022-10-08T23:22:12.345Z,100759.38
2022-10-08T23:24:38.878Z,100758.97
2022-10-08T23:27:08.864Z,100761.06
2022-10-08T23:29:36.236Z,100764.84
2022-10-08T23:32:03.007Z,100762.75
2022-10-08T23:34:29.572Z,100766.66
2022-10-08T23:36:56.051Z,100768.94
2022-10-08T23:39:22.734Z,100768.53
2022-10-08T23:41:49.185Z,100765.38
2022-10-08T23:44:16.094Z,100761.69
2022-10-08T23:46:42.523Z,100772.72
2022-10-08T23:49:09.161Z,100770.25
2022-10-08T23:51:35.988Z,100776.69
2022-10-08T23:54:02.484Z,100766.19
2022-10-08T23:56:29.405Z,100772.72
2022-10-08T23:58:56.254Z,100763.22
